createdAt,value
2022-12-16T00:01:38.477Z,29.73
2022-12-16T00:04:06.025Z,27.43
2022-12-16T00:06:34.144Z,28.13
2022-12-16T00:09:01.964Z,27.80
2022-12-16T00:11:32.019Z,27.13
2022-12-16T00:13:59.233Z,29.37
2022-12-16T00:16:26.630Z,27.37
2022-12-16T00:18:53.927Z,26.20
2022-12-16T00:21:22.162Z,25.70
2022-12-16T00:23:49.599Z,24.67
2022-12-16T00:26:17.586Z,25.03
2022-12-16T00:28:45.105Z,26.40
2022-12-16T00:31:12.871Z,28.07
2022-12-16T00:33:40.252Z,26.80
2022-12-16T00:36:07.964Z,29.03
2022-12-16T00:38:35.766Z,27.90
2022-12-16T00:41:03.489Z,29.70
2022-12-16T00:43:31.106Z,30.23
2022-12-16T00:45:58.777Z,31.70
2022-12-16T00:48:26.208Z,31.13
2022-12-16T00:50:55.289Z,28.50
2022-12-16T00:53:23.965Z,29.87
2022-12-16T00:55:51.240Z,29.80
2022-12-16T00:58:19.214Z,30.30
2022-12-16T01:00:46.698Z,29.07
2022-12-16T01:03:21.113Z,30.43
2022-12-16T01:05:49.243Z,29.63
2022-12-16T01:08:16.601Z,30.23
2022-12-16T01:10:43.894Z,29.17
2022-12-16T01:13:11.399Z,29.27
2022-12-16T01:15:39.189Z,28.80
2022-12-16T01:18:06.438Z,27.87
2022-12-16T01:20:34.573Z,29.37
2022-12-16T01:23:01.878Z,27.53
2022-12-16T01:25:29.448Z,28.13
2022-12-16T01:27:56.737Z,29.67
2022-12-16T01:30:24.784Z,29.23
2022-12-16T01:32:53.131Z,29.83
2022-12-16T01:35:51.463Z,27.40
2022-12-16T01:38:07.847Z,28.00
2022-12-16T01:40:35.451Z,26.23
2022-12-16T01:43:03.576Z,27.10
2022-12-16T01:45:35.398Z,25.43
2022-12-16T01:48:06.039Z,24.20
2022-12-16T01:50:33.345Z,23.13
2022-12-16T01:53:03.515Z,24.57
2022-12-16T01:55:37.252Z,22.47
2022-12-16T01:58:16.343Z,21.10
2022-12-16T02:00:43.824Z,20.30
2022-12-16T02:03:11.685Z,20.37
2022-12-16T02:05:43.399Z,20.17
2022-12-16T02:08:10.654Z,19.57
2022-12-16T02:10:41.244Z,18.40
2022-12-16T02:13:27.196Z,17.73
2022-12-16T02:16:11.681Z,18.07
2022-12-16T02:18:47.878Z,17.43
2022-12-16T02:21:33.587Z,17.73
2022-12-16T02:24:19.766Z,16.90
2022-12-16T02:27:05.545Z,17.03
2022-12-16T02:29:54.923Z,17.37
2022-12-16T02:32:22.441Z,16.80
2022-12-16T02:35:08.573Z,17.73
2022-12-16T02:37:36.232Z,18.63
2022-12-16T02:40:04.988Z,18.43
2022-12-16T02:42:37.866Z,18.07
2022-12-16T02:45:08.829Z,19.70
2022-12-16T02:47:36.247Z,19.83
2022-12-16T02:50:03.838Z,19.20
2022-12-16T02:52:32.676Z,20.53
2022-12-16T02:55:03.797Z,21.30
2022-12-16T02:57:49.965Z,20.63
2022-12-16T03:00:24.025Z,20.63
2022-12-16T03:02:54.961Z,21.70
2022-12-16T03:05:34.136Z,21.63
2022-12-16T03:08:03.514Z,22.67
2022-12-16T03:10:33.187Z,22.43
2022-12-16T03:13:03.044Z,21.97
2022-12-16T03:15:32.397Z,23.20
2022-12-16T03:18:00.620Z,21.93
2022-12-16T03:20:30.299Z,22.13
2022-12-16T03:23:00.192Z,23.03
2022-12-16T03:25:28.876Z,22.07
2022-12-16T03:28:32.380Z,22.03
2022-12-16T03:31:06.778Z,23.47
2022-12-16T03:33:39.540Z,23.37
2022-12-16T03:36:16.309Z,22.47
2022-12-16T03:38:45.570Z,24.07
2022-12-16T03:41:14.039Z,25.57
2022-12-16T03:43:41.323Z,23.63
2022-12-16T03:46:10.559Z,24.70
2022-12-16T03:48:46.432Z,26.07
2022-12-16T03:51:14.048Z,22.77
2022-12-16T03:53:41.262Z,24.80
2022-12-16T03:56:08.607Z,26.20
2022-12-16T03:58:37.941Z,26.87
2022-12-16T04:01:05.403Z,25.60
2022-12-16T04:03:33.211Z,26.23
2022-12-16T04:06:00.895Z,25.57
2022-12-16T04:08:28.414Z,24.33
2022-12-16T04:11:14.433Z,25.13
2022-12-16T04:14:00.202Z,24.50
2022-12-16T04:16:47.311Z,23.17
2022-12-16T04:19:39.022Z,25.60
2022-12-16T04:22:25.433Z,24.50
2022-12-16T04:24:52.739Z,23.83
2022-12-16T04:27:25.097Z,22.87
2022-12-16T04:30:10.944Z,22.23
2022-12-16T04:32:57.407Z,21.07
2022-12-16T04:35:43.881Z,21.10
2022-12-16T04:38:29.641Z,22.20
2022-12-16T04:41:15.481Z,20.40
2022-12-16T04:44:02.119Z,22.23
2022-12-16T04:46:48.443Z,23.43
2022-12-16T04:49:34.638Z,22.77
2022-12-16T04:52:20.650Z,23.60
2022-12-16T04:55:07.785Z,23.97
2022-12-16T04:57:53.932Z,26.70
2022-12-16T05:00:39.943Z,24.53
2022-12-16T05:03:26.785Z,22.63
2022-12-16T05:06:12.893Z,20.87
2022-12-16T05:08:58.824Z,22.07
2022-12-16T05:11:45.148Z,20.97
2022-12-16T05:14:31.482Z,19.53
2022-12-16T05:17:17.220Z,22.00
2022-12-16T05:20:03.171Z,21.23
2022-12-16T05:22:48.962Z,21.37
2022-12-16T05:25:34.918Z,21.87
2022-12-16T05:28:22.052Z,20.50
2022-12-16T05:31:09.416Z,20.60
2022-12-16T05:33:55.327Z,20.17
2022-12-16T05:36:41.397Z,21.53
2022-12-16T05:39:27.640Z,20.67
2022-12-16T05:42:14.152Z,20.87
2022-12-16T05:45:00.200Z,23.23
2022-12-16T05:47:46.370Z,21.43
2022-12-16T05:50:32.734Z,21.00
2022-12-16T05:53:18.717Z,21.33
2022-12-16T05:56:04.389Z,20.83
2022-12-16T05:58:50.418Z,20.57
2022-12-16T06:01:37.494Z,22.23
2022-12-16T06:04:24.061Z,21.50
2022-12-16T06:07:10.641Z,21.43
2022-12-16T06:09:57.130Z,23.53
2022-12-16T06:12:43.772Z,20.80
2022-12-16T06:15:29.814Z,22.90
2022-12-16T06:18:16.334Z,22.47
2022-12-16T06:21:02.576Z,23.00
2022-12-16T06:23:48.517Z,22.00
2022-12-16T06:26:34.402Z,24.23
2022-12-16T06:29:20.295Z,22.00
2022-12-16T06:32:06.609Z,22.97
2022-12-16T06:34:52.780Z,22.97
2022-12-16T06:37:38.749Z,22.43
2022-12-16T06:40:25.130Z,22.37
2022-12-16T06:43:11.224Z,21.17
2022-12-16T06:45:57.242Z,22.83
2022-12-16T06:48:43.377Z,22.60
2022-12-16T06:51:29.373Z,21.30
2022-12-16T06:54:15.525Z,22.00
2022-12-16T06:57:01.566Z,23.13
2022-12-16T06:59:48.666Z,23.13
2022-12-16T07:02:34.915Z,23.37
2022-12-16T07:05:21.131Z,25.00
2022-12-16T07:08:08.243Z,24.27
2022-12-16T07:10:55.024Z,24.60
2022-12-16T07:13:42.018Z,24.07
2022-12-16T07:16:27.940Z,23.93
2022-12-16T07:19:14.072Z,24.40
2022-12-16T07:21:59.984Z,24.70
2022-12-16T07:24:46.189Z,24.13
2022-12-16T07:27:32.062Z,25.83
2022-12-16T07:30:18.914Z,24.40
2022-12-16T07:33:04.699Z,23.93
2022-12-16T07:35:50.671Z,23.70
2022-12-16T07:38:36.405Z,25.73
2022-12-16T07:41:22.251Z,25.00
2022-12-16T07:44:08.019Z,23.63
2022-12-16T07:46:53.871Z,23.37
2022-12-16T07:49:41.407Z,23.33
2022-12-16T07:52:27.573Z,23.30
2022-12-16T07:55:13.450Z,23.17
2022-12-16T07:57:59.273Z,24.17
2022-12-16T08:00:45.063Z,23.17
2022-12-16T08:03:31.289Z,22.33
2022-12-16T08:06:17.548Z,21.90
2022-12-16T08:09:04.485Z,21.73
2022-12-16T08:11:50.468Z,22.07
2022-12-16T08:14:36.313Z,22.17
2022-12-16T08:17:23.636Z,21.57
2022-12-16T08:20:09.860Z,22.87
2022-12-16T08:22:55.525Z,20.93
2022-12-16T08:25:41.441Z,22.83
2022-12-16T08:28:27.754Z,22.00
2022-12-16T08:31:13.724Z,20.97
2022-12-16T08:34:00.113Z,21.30
2022-12-16T08:36:45.986Z,21.07
2022-12-16T08:39:32.003Z,21.20
2022-12-16T08:42:18.280Z,22.13
2022-12-16T08:45:04.312Z,22.67
2022-12-16T08:47:50.727Z,21.30
2022-12-16T08:50:37.297Z,21.33
2022-12-16T08:53:23.330Z,19.43
2022-12-16T08:56:09.439Z,19.47
2022-12-16T08:58:55.434Z,18.83
2022-12-16T09:01:42.082Z,18.73
2022-12-16T09:04:28.336Z,18.53
2022-12-16T09:07:14.116Z,18.67
2022-12-16T09:10:00.191Z,19.10
2022-12-16T09:12:46.141Z,18.37
2022-12-16T09:15:32.165Z,18.57
2022-12-16T09:18:18.472Z,17.03
2022-12-16T09:21:04.418Z,18.53
2022-12-16T09:23:50.988Z,18.77
2022-12-16T09:26:37.305Z,18.77
2022-12-16T09:29:23.532Z,19.70
2022-12-16T09:32:09.782Z,22.63
2022-12-16T09:34:55.865Z,21.40
2022-12-16T09:37:42.019Z,22.60
2022-12-16T09:40:30.279Z,21.77
2022-12-16T09:43:21.955Z,24.63
2022-12-16T09:46:27.169Z,24.63
2022-12-16T09:49:13.473Z,24.60
2022-12-16T09:52:00.339Z,23.10
2022-12-16T09:54:49.117Z,21.77
2022-12-16T09:57:35.539Z,22.13
2022-12-16T10:00:24.183Z,20.53
2022-12-16T10:03:10.774Z,18.67
2022-12-16T10:06:22.220Z,16.97
2022-12-16T10:09:13.847Z,15.23
2022-12-16T10:12:05.777Z,16.63
2022-12-16T10:14:55.580Z,17.30
2022-12-16T10:17:42.592Z,15.67
2022-12-16T10:20:34.333Z,15.07
2022-12-16T10:23:35.455Z,14.77
2022-12-16T10:26:27.853Z,14.83
2022-12-16T10:29:17.449Z,13.50
2022-12-16T10:32:03.553Z,13.63
2022-12-16T10:34:51.322Z,13.60
2022-12-16T10:37:42.156Z,13.73
2022-12-16T10:40:33.723Z,13.87
2022-12-16T10:43:25.070Z,12.47
2022-12-16T10:46:12.782Z,12.90
2022-12-16T10:48:59.204Z,11.67
2022-12-16T10:51:46.881Z,11.50
2022-12-16T10:54:39.099Z,12.30
2022-12-16T10:57:25.066Z,11.37
2022-12-16T11:00:11.098Z,12.17
2022-12-16T11:02:57.362Z,12.60
2022-12-16T11:05:54.080Z,12.80
2022-12-16T11:08:43.598Z,13.23
2022-12-16T11:11:34.211Z,12.57
2022-12-16T11:14:35.613Z,12.20
2022-12-16T11:17:48.211Z,12.83
2022-12-16T11:20:41.538Z,12.93
2022-12-16T11:23:34.083Z,12.97
2022-12-16T11:26:36.399Z,13.20
2022-12-16T11:29:31.205Z,12.57
2022-12-16T11:32:20.487Z,11.80
2022-12-16T11:35:10.692Z,12.67
2022-12-16T11:37:57.569Z,11.33
2022-12-16T11:40:44.015Z,11.10
2022-12-16T11:43:32.739Z,11.47
2022-12-16T11:46:20.456Z,11.73
2022-12-16T11:49:08.443Z,10.93
2022-12-16T11:52:08.132Z,11.03
2022-12-16T11:55:09.818Z,15.40
2022-12-16T11:58:18.581Z,12.17
2022-12-16T12:01:08.974Z,12.50
2022-12-16T12:03:56.344Z,10.90
2022-12-16T12:07:01.244Z,11.60
2022-12-16T12:09:47.286Z,12.57
2022-12-16T12:13:02.552Z,12.17
2022-12-16T12:15:53.825Z,12.67
2022-12-16T12:18:52.183Z,12.57
2022-12-16T12:21:53.364Z,12.33
2022-12-16T12:24:39.161Z,12.20
2022-12-16T12:27:24.996Z,12.77
2022-12-16T12:30:17.466Z,12.77
2022-12-16T12:33:12.694Z,11.07
2022-12-16T12:36:10.818Z,10.57
2022-12-16T12:39:07.030Z,10.27
2022-12-16T12:42:18.741Z,10.17
2022-12-16T12:45:26.728Z,10.80
2022-12-16T12:48:19.869Z,9.37
2022-12-16T12:51:14.263Z,11.10
2022-12-16T12:54:00.358Z,12.60
2022-12-16T12:56:55.517Z,11.70
2022-12-16T12:59:45.013Z,11.17
2022-12-16T13:02:38.076Z,11.80
2022-12-16T13:05:24.779Z,12.07
2022-12-16T13:08:11.005Z,12.63
2022-12-16T13:10:57.391Z,13.23
2022-12-16T13:13:43.575Z,12.47
2022-12-16T13:16:30.756Z,12.20
2022-12-16T13:19:35.935Z,12.00
2022-12-16T13:22:21.988Z,13.57
2022-12-16T13:25:09.103Z,12.00
2022-12-16T13:28:05.803Z,11.70
2022-12-16T13:30:52.841Z,12.37
2022-12-16T13:33:41.771Z,12.03
2022-12-16T13:36:29.008Z,11.73
2022-12-16T13:39:15.951Z,12.77
2022-12-16T13:42:01.818Z,11.10
2022-12-16T13:45:07.667Z,13.03
2022-12-16T13:47:59.768Z,13.33
2022-12-16T13:50:57.996Z,13.37
2022-12-16T13:53:59.220Z,14.27
2022-12-16T13:56:56.559Z,13.33
2022-12-16T13:59:45.469Z,14.63
2022-12-16T14:02:52.153Z,14.37
2022-12-16T14:05:48.231Z,14.00
2022-12-16T14:08:40.031Z,13.37
2022-12-16T14:11:32.498Z,11.50
2022-12-16T14:14:22.333Z,12.00
2022-12-16T14:17:19.899Z,11.43
2022-12-16T14:20:14.954Z,11.33
2022-12-16T14:23:32.414Z,12.07
2022-12-16T14:26:19.051Z,12.40
2022-12-16T14:29:07.163Z,11.97
2022-12-16T14:32:00.786Z,12.27
2022-12-16T14:34:49.405Z,11.87
2022-12-16T14:37:55.807Z,11.70
2022-12-16T14:40:44.672Z,11.47
2022-12-16T14:43:32.427Z,11.87
2022-12-16T14:46:21.791Z,11.50
2022-12-16T14:49:08.483Z,12.80
2022-12-16T14:51:55.759Z,12.50
2022-12-16T14:54:54.903Z,18.35
2022-12-16T14:57:42.312Z,14.37
2022-12-16T15:00:28.345Z,14.90
2022-12-16T15:03:20.663Z,17.48
2022-12-16T15:06:10.281Z,15.70
2022-12-16T15:09:01.064Z,14.30
2022-12-16T15:11:47.165Z,14.60
2022-12-16T15:14:36.901Z,15.33
2022-12-16T15:17:23.479Z,14.80
2022-12-16T15:20:10.519Z,14.80
2022-12-16T15:22:56.815Z,15.60
2022-12-16T15:25:44.212Z,15.40
2022-12-16T15:28:44.158Z,17.23
2022-12-16T15:31:43.828Z,16.63
2022-12-16T15:34:39.031Z,14.80
2022-12-16T15:37:34.717Z,14.83
2022-12-16T15:40:20.974Z,14.57
2022-12-16T15:43:11.855Z,15.97
2022-12-16T15:45:57.767Z,16.03
2022-12-16T15:48:48.856Z,16.13
2022-12-16T15:51:40.485Z,15.17
2022-12-16T15:54:33.568Z,14.83
2022-12-16T15:57:19.769Z,13.97
2022-12-16T16:00:18.677Z,14.50
2022-12-16T16:03:06.075Z,13.80
2022-12-16T16:05:55.344Z,14.50
2022-12-16T16:08:41.115Z,13.27
2022-12-16T16:11:27.444Z,13.13
2022-12-16T16:14:14.620Z,12.57
2022-12-16T16:17:00.713Z,11.47
2022-12-16T16:19:47.372Z,11.30
2022-12-16T16:22:34.713Z,11.87
2022-12-16T16:25:21.099Z,12.03
2022-12-16T16:28:07.351Z,11.80
2022-12-16T16:30:53.247Z,15.30
2022-12-16T16:33:39.532Z,17.40
2022-12-16T16:36:34.540Z,11.63
2022-12-16T16:39:20.811Z,12.43
2022-12-16T16:42:07.033Z,12.03
2022-12-16T16:44:53.697Z,12.40
2022-12-16T16:47:40.228Z,12.33
2022-12-16T16:50:26.466Z,11.60
2022-12-16T16:53:12.371Z,12.10
2022-12-16T16:55:58.618Z,11.60
2022-12-16T16:58:46.249Z,11.00
2022-12-16T17:01:33.904Z,10.37
2022-12-16T17:04:20.221Z,10.47
2022-12-16T17:07:06.309Z,10.13
2022-12-16T17:09:52.207Z,10.87
2022-12-16T17:12:39.034Z,10.47
2022-12-16T17:15:37.305Z,9.73
2022-12-16T17:18:23.778Z,9.53
2022-12-16T17:21:10.427Z,9.20
2022-12-16T17:23:56.720Z,9.50
2022-12-16T17:26:43.576Z,8.80
2022-12-16T17:29:47.973Z,9.60
2022-12-16T17:32:34.343Z,9.73
2022-12-16T17:35:20.625Z,8.50
2022-12-16T17:38:06.437Z,9.90
2022-12-16T17:40:52.791Z,10.10
2022-12-16T17:43:39.419Z,10.50
2022-12-16T17:46:26.986Z,10.60
2022-12-16T17:49:16.972Z,10.87
2022-12-16T17:52:03.438Z,11.47
2022-12-16T17:54:50.587Z,12.73
2022-12-16T17:57:37.467Z,10.53
2022-12-16T18:00:24.206Z,10.47
2022-12-16T18:03:10.829Z,9.87
2022-12-16T18:05:57.939Z,9.70
2022-12-16T18:08:44.120Z,10.43
2022-12-16T18:11:33.483Z,10.07
2022-12-16T18:14:21.859Z,11.00
2022-12-16T18:17:08.294Z,11.87
2022-12-16T18:19:57.200Z,10.57
2022-12-16T18:22:43.393Z,12.47
2022-12-16T18:25:29.254Z,13.70
2022-12-16T18:28:15.392Z,12.40
2022-12-16T18:31:01.832Z,11.33
2022-12-16T18:33:47.744Z,12.03
2022-12-16T18:36:33.908Z,11.00
2022-12-16T18:39:19.736Z,11.67
2022-12-16T18:42:06.440Z,12.00
2022-12-16T18:45:00.703Z,13.43
2022-12-16T18:47:47.110Z,12.07
2022-12-16T18:50:37.953Z,11.53
2022-12-16T18:53:25.195Z,11.37
2022-12-16T18:56:21.175Z,11.60
2022-12-16T18:59:07.217Z,12.57
2022-12-16T19:01:53.306Z,11.73
2022-12-16T19:04:39.692Z,12.53
2022-12-16T19:07:25.798Z,28.97
2022-12-16T19:10:11.582Z,17.23
2022-12-16T19:12:58.140Z,13.17
2022-12-16T19:15:44.314Z,12.30
2022-12-16T19:18:31.114Z,12.90
2022-12-16T19:21:17.810Z,12.77
2022-12-16T19:24:03.663Z,12.50
2022-12-16T19:26:50.412Z,12.97
2022-12-16T19:29:36.648Z,13.57
2022-12-16T19:32:22.864Z,14.57
2022-12-16T19:35:09.454Z,16.97
2022-12-16T19:37:56.877Z,19.27
2022-12-16T19:40:43.073Z,16.20
2022-12-16T19:43:29.011Z,15.87
2022-12-16T19:46:15.600Z,20.43
2022-12-16T19:49:02.035Z,14.40
2022-12-16T19:51:47.953Z,14.43
2022-12-16T19:54:34.641Z,15.47
2022-12-16T19:57:20.547Z,16.30
2022-12-16T20:00:06.521Z,18.97
2022-12-16T20:02:52.603Z,20.83
2022-12-16T20:05:39.464Z,20.27
2022-12-16T20:08:25.865Z,19.23
2022-12-16T20:11:11.760Z,21.57
2022-12-16T20:13:58.236Z,24.40
2022-12-16T20:16:44.211Z,19.27
2022-12-16T20:19:30.415Z,19.57
2022-12-16T20:22:17.074Z,20.70
2022-12-16T20:25:03.139Z,17.27
2022-12-16T20:27:49.430Z,18.57
2022-12-16T20:30:35.655Z,18.00
2022-12-16T20:33:21.679Z,17.07
2022-12-16T20:36:18.034Z,15.73
2022-12-16T20:39:04.160Z,13.63
2022-12-16T20:41:51.695Z,15.87
2022-12-16T20:44:37.978Z,16.17
2022-12-16T20:47:24.111Z,14.63
2022-12-16T20:50:10.038Z,14.83
2022-12-16T20:52:55.762Z,14.90
2022-12-16T20:55:43.537Z,15.17
2022-12-16T20:58:29.623Z,23.77
2022-12-16T21:01:16.693Z,13.57
2022-12-16T21:04:02.845Z,14.47
2022-12-16T21:06:48.977Z,13.47
2022-12-16T21:09:35.374Z,20.70
2022-12-16T21:12:21.517Z,18.80
2022-12-16T21:15:08.326Z,17.50
2022-12-16T21:17:54.754Z,16.10
2022-12-16T21:20:42.267Z,15.07
2022-12-16T21:23:29.538Z,16.00
2022-12-16T21:26:18.414Z,15.47
2022-12-16T21:29:04.441Z,13.97
2022-12-16T21:31:50.771Z,13.33
2022-12-16T21:34:37.074Z,13.87
2022-12-16T21:37:23.181Z,14.07
2022-12-16T21:40:09.430Z,15.83
2022-12-16T21:42:56.250Z,15.73
2022-12-16T21:45:43.016Z,17.47
2022-12-16T21:48:30.173Z,16.80
2022-12-16T21:51:16.278Z,16.57
2022-12-16T21:54:22.470Z,16.93
2022-12-16T21:57:09.636Z,18.77
2022-12-16T21:59:56.482Z,20.57
2022-12-16T22:02:42.317Z,20.27
2022-12-16T22:05:28.075Z,15.30
2022-12-16T22:08:14.314Z,14.33
2022-12-16T22:11:00.231Z,14.20
2022-12-16T22:13:46.534Z,14.70
2022-12-16T22:16:32.629Z,14.30
2022-12-16T22:19:18.675Z,16.17
2022-12-16T22:22:06.568Z,14.90
2022-12-16T22:24:52.967Z,13.37
2022-12-16T22:27:40.800Z,15.40
2022-12-16T22:30:28.496Z,15.70
2022-12-16T22:33:15.229Z,16.57
2022-12-16T22:36:01.615Z,13.83
2022-12-16T22:38:50.959Z,13.83
2022-12-16T22:41:38.441Z,14.17
2022-12-16T22:44:24.809Z,13.23
2022-12-16T22:47:10.796Z,13.37
2022-12-16T22:49:57.038Z,12.93
2022-12-16T22:52:43.559Z,13.17
2022-12-16T22:55:29.647Z,12.97
2022-12-16T22:58:15.513Z,11.97
2022-12-16T23:01:01.600Z,12.43
2022-12-16T23:03:47.975Z,11.73
2022-12-16T23:06:33.904Z,10.43
2022-12-16T23:09:19.660Z,11.70
2022-12-16T23:12:06.074Z,12.97
2022-12-16T23:14:52.223Z,14.20
2022-12-16T23:17:38.310Z,13.73
2022-12-16T23:20:24.566Z,13.90
2022-12-16T23:23:12.995Z,14.80
2022-12-16T23:25:58.784Z,15.53
2022-12-16T23:28:45.289Z,15.43
2022-12-16T23:31:31.885Z,14.10
2022-12-16T23:34:17.952Z,15.40
2022-12-16T23:37:04.226Z,15.70
2022-12-16T23:39:50.261Z,15.17
2022-12-16T23:42:36.189Z,15.23
2022-12-16T23:45:22.157Z,14.83
2022-12-16T23:48:09.644Z,15.87
2022-12-16T23:50:56.455Z,16.87
2022-12-16T23:53:42.453Z,14.57
2022-12-16T23:56:29.685Z,13.93
2022-12-16T23:59:15.739Z,14.90
